Chippewa Lake, Michigan
Current Conditions -  °F | °C
As of 1:14 PM on Sunday 25 Jan 2015 (Local Time) from KRQB Reporting Station
Clear Clear  
Wind Chill:   Ceiling: Unl
Heat Index: 21°   Visibility: 10mi
Dew Point:   Wind: 13mph
Humidity: 51%   Direction: 50°NE
Pressure: 29.93"   Gusts: 18mph
Location:  43.74°N, 85.3°W
Report Text: KRQB 251814Z AUTO 05011G16KT 10SM CLR M06/M15 A2993 RMK AO2 T10631149
Loading
Personal Weather Stations






























Interactive Weather Map New forecast layout! Learn more

10-Day Weather Forecast

Advertisements
Track Severe Weather on mobile